LFMC 200130Z AUTO 00000KT 9999 ////// 14/11 Q1026 LFMC 200100Z AUTO 00000KT 9999 ////// 14/11 Q1026 LFMC 200030Z AUTO 00000KT 9999 ////// 15/11 Q1026 LFMC 200000Z AUTO 00000KT 9999 ////// 15/11 Q1026 LFMC 192330Z AUTO 00000KT 9999 ////// 16/11 Q1026 LFMC 192300Z AUTO VRB02KT 9999 ////// 16/11 Q1026 LFMC 192230Z AUTO 00000KT 9999 ////// 17/11 Q1026 LFMC 192200Z AUTO 00000KT 9999 ////// 18/12 Q1026 LFMC 192130Z AUTO VRB01KT 9999 ////// 18/11 Q1026 LFMC 192100Z AUTO 00000KT 9999 ////// 19/12 Q1025 LFMC 192030Z AUTO VRB02KT 9999 ////// 20/12 Q1025 LFMC 192000Z AUTO 00000KT 9999 ////// 21/12 Q1025 LFMC 191930Z AUTO 00000KT 9999 ////// 22/12 Q1025 LFMC 191900Z AUTO 01001KT 9999 ////// 24/11 Q1025 LFMC 191830Z AUTO 10003KT 9999 ////// 25/11 Q1024 LFMC 191800Z AUTO 11005KT 9999 ////// 26/11 Q1024 LFMC 191730Z AUTO 11005KT 9999 ////// 28/10 Q1024 LFMC 191700Z AUTO 11006KT 9999 ////// 28/09 Q1024 LFMC 191630Z AUTO 11006KT 9999 ////// 28/08 Q1024 LFMC 191600Z AUTO 13006KT 100V170 9999 ////// 29/07 Q1024 LFMC 191530Z AUTO 13008KT 070V150 9999 ////// 29/08 Q1024 LFMC 191500Z AUTO 12009KT 9999 ////// 29/08 Q1024 LFMC 191430Z AUTO 12010KT 9999 ////// 29/05 Q1024 LFMC 191400Z AUTO 13009KT 100V190 9999 ////// 29/06 Q1025 LFMC 191330Z AUTO 14010KT 100V190 9999 ////// 29/05 Q1025 LFMC 191300Z AUTO 12010KT 100V160 9999 ////// 28/07 Q1025 LFMC 191230Z AUTO 11010KT 080V150 9999 ////// 29/07 Q1025 LFMC 191130Z AUTO 12012KT 090V150 9999 ////// 28/05 Q1025 LFMC 191100Z AUTO 11013KT 080V150 9999 ////// 27/04 Q1025 LFMC 191030Z AUTO 09014KT 9999 ////// 28/04 Q1025 LFMC 191000Z AUTO 08012KT 040V140 9999 ////// 28/04 Q1025 LFMC 190930Z AUTO 11014KT 9999 ////// 27/07 Q1025 LFMC 190900Z AUTO 10015KT 9999 ////// 27/07 Q1025 LFMC 190830Z AUTO 10014KT 9999 ////// 26/08 Q1025 LFMC 190800Z AUTO 07008KT 9999 ////// 26/12 Q1025 LFMC 190730Z AUTO 06005KT 030V090 9999 ////// 24/14 Q1025 LFMC 190700Z AUTO 00000KT 9999 ////// 22/16 Q1024 LFMC 190630Z AUTO VRB01KT //// // ////// 19/14 Q1024 LFMC 190600Z AUTO 00000KT 9999 ////// 17/14 Q1024 LFMC 190530Z AUTO 00000KT 9999 ////// 16/13 Q1024 LFMC 190500Z AUTO VRB01KT 9999 ////// 14/12 Q1024 LFMC 190430Z AUTO 00000KT 9999 ////// 14/12 Q1023 LFMC 190400Z AUTO 00000KT 9999 ////// 14/12 Q1023 LFMC 190330Z AUTO 00000KT 9999 ////// 14/12 Q1023 LFMC 190300Z AUTO 00000KT 9999 ////// 14/12 Q1023 LFMC 190230Z AUTO 22001KT 9999 ////// 14/12 Q1023 LFMC 190200Z AUTO 05001KT 9999 ////// 15/12 Q1023 LFMC 190130Z AUTO 00000KT 9999 ////// 15/13 Q1022 LFMC 190100Z AUTO 00000KT 9999 ////// 15/13 Q1022 LFMC 190030Z AUTO 00000KT 9999 ////// 16/13 Q1022 LFMC 190000Z AUTO 00000KT 9999 ////// 16/14 Q1022 LFMC 182330Z AUTO 00000KT 9999 ////// 17/13 Q1022 LFMC 182300Z AUTO 00000KT 9999 ////// 17/13 Q1022 LFMC 182230Z AUTO 25001KT 9999 ////// 18/13 Q1022 LFMC 182200Z AUTO 00000KT 9999 ////// 19/13 Q1022 LFMC 182130Z AUTO VRB02KT 9999 ////// 19/13 Q1022 LFMC 182100Z AUTO VRB01KT 9999 ////// 20/14 Q1021 LFMC 182030Z AUTO 04002KT 9999 ////// 20/14 Q1021 LFMC 182000Z AUTO 04003KT 9999 ////// 21/13 Q1021 LFMC 181930Z AUTO VRB03KT 9999 ////// 21/12 Q1021 LFMC 181900Z AUTO 10005KT 9999 ////// 22/12 Q1020 LFMC 181830Z AUTO 09003KT 9999 ////// 23/12 Q1020 LFMC 181800Z AUTO 14005KT 9999 ////// 24/11 Q1020 LFMC 181730Z AUTO 13007KT 100V160 9999 ////// 25/11 Q1020 LFMC 181700Z AUTO 13008KT 9999 ////// 26/11 Q1019 LFMC 181630Z AUTO 11008KT 9999 ////// 26/13 Q1019 LFMC 181600Z AUTO 12008KT 9999 ////// 26/14 Q1019 LFMC 181530Z AUTO 11010KT 9999 ////// 27/14 Q1019 LFMC 181500Z AUTO 12009KT 9999 ////// 28/14 Q1019 LFMC 181430Z AUTO 13011KT 090V150 9999 ////// 28/14 Q1019 LFMC 181400Z AUTO 13012KT 9999 ////// 28/14 Q1019

METAR Messwerte "LE LUC/LE CANNET" LFMC

Zurück zur Übersicht

Ortsname
Ländercode / m ü. NN
Zeit Temperatur Taupunkt Rel.
Luftfeuchte
Luftdruck:
Altimeter
NN
Station
Wind in Beaufort
(Knoten)
Sichtweite
(Meter)
Wolken
(Meter über Grund)
Wettererscheinung
LE LUC/LE CANNET
FR 79
Fr 20.05. 03:30141182 %1026
1026
1016
Windstill>= 10000  
LE LUC/LE CANNET
FR 79
Fr 20.05. 03:00141182 %1026
1026
1016
Windstill>= 10000  
LE LUC/LE CANNET
FR 79
Fr 20.05. 02:30151177 %1026
1026
1016
Windstill>= 10000  
LE LUC/LE CANNET
FR 79
Fr 20.05. 02:00151177 %1026
1026
1016
Windstill>= 10000  
LE LUC/LE CANNET
FR 79
Fr 20.05. 01:30161172 %1026
1026
1016
Windstill>= 10000  
LE LUC/LE CANNET
FR 79
Fr 20.05. 01:00161172 %1026
1026
1016
Uml 1 (2)>= 10000  
LE LUC/LE CANNET
FR 79
Fr 20.05. 00:30171168 %1026
1026
1016
Windstill>= 10000  
LE LUC/LE CANNET
FR 79
Fr 20.05. 00:00181268 %1026
1026
1016
Windstill>= 10000  
LE LUC/LE CANNET
FR 79
Do 19.05. 23:30181164 %1026
1026
1016
Uml 1 (1)>= 10000  
LE LUC/LE CANNET
FR 79
Do 19.05. 23:00191264 %1025
1025
1015
Windstill>= 10000  
LE LUC/LE CANNET
FR 79
Do 19.05. 22:30201260 %1025
1025
1015
Uml 1 (2)>= 10000  
LE LUC/LE CANNET
FR 79
Do 19.05. 22:00211256 %1025
1025
1015
Windstill>= 10000  
LE LUC/LE CANNET
FR 79
Do 19.05. 21:30221253 %1025
1025
1015
Windstill>= 10000  
LE LUC/LE CANNET
FR 79
Do 19.05. 21:00241144 %1025
1025
1015
N 1 (1)>= 10000  
LE LUC/LE CANNET
FR 79
Do 19.05. 20:30251141 %1024
1024
1014
O 2 (3)>= 10000  
LE LUC/LE CANNET
FR 79
Do 19.05. 20:00261139 %1024
1024
1014
OSO 2 (5)>= 10000  
LE LUC/LE CANNET
FR 79
Do 19.05. 19:30281032 %1024
1024
1014
OSO 2 (5)>= 10000  
LE LUC/LE CANNET
FR 79
Do 19.05. 19:0028930 %1024
1024
1014
OSO 2 (6)>= 10000  
LE LUC/LE CANNET
FR 79
Do 19.05. 18:3028828 %1024
1024
1014
OSO 2 (6)>= 10000  
LE LUC/LE CANNET
FR 79
Do 19.05. 18:0029725 %1024
1024
1014
SO 2 (6)
O - S
>= 10000  
LE LUC/LE CANNET
FR 79
Do 19.05. 17:3029827 %1024
1024
1014
SO 3 (8)
ONO - SSO
>= 10000  
LE LUC/LE CANNET
FR 79
Do 19.05. 17:0029827 %1024
1024
1014
OSO 3 (9)>= 10000  
LE LUC/LE CANNET
FR 79
Do 19.05. 16:3029522 %1024
1024
1014
OSO 3 (10)>= 10000  
LE LUC/LE CANNET
FR 79
Do 19.05. 16:0029623 %1025
1025
1015
SO 3 (9)
O - S
>= 10000  
LE LUC/LE CANNET
FR 79
Do 19.05. 15:3029522 %1025
1025
1015
SO 3 (10)
O - S
>= 10000  
LE LUC/LE CANNET
FR 79
Do 19.05. 15:0028727 %1025
1025
1015
OSO 3 (10)
O - SSO
>= 10000  
LE LUC/LE CANNET
FR 79
Do 19.05. 14:3029725 %1025
1025
1015
OSO 3 (10)
O - SSO
>= 10000  
LE LUC/LE CANNET
FR 79
Do 19.05. 13:3028523 %1025
1025
1015
OSO 4 (12)
O - SSO
>= 10000  
LE LUC/LE CANNET
FR 79
Do 19.05. 13:0027423 %1025
1025
1015
OSO 4 (13)
O - SSO
>= 10000  
LE LUC/LE CANNET
FR 79
Do 19.05. 12:3028422 %1025
1025
1015
O 4 (14)>= 10000  
LE LUC/LE CANNET
FR 79
Do 19.05. 12:0028422 %1025
1025
1015
O 4 (12)
NO - SO
>= 10000  
LE LUC/LE CANNET
FR 79
Do 19.05. 11:3027728 %1025
1025
1015
OSO 4 (14)>= 10000  
LE LUC/LE CANNET
FR 79
Do 19.05. 11:0027728 %1025
1025
1015
O 4 (15)>= 10000  
LE LUC/LE CANNET
FR 79
Do 19.05. 10:3026832 %1025
1025
1015
O 4 (14)>= 10000  
LE LUC/LE CANNET
FR 79
Do 19.05. 10:00261242 %1025
1025
1015
ONO 3 (8)>= 10000  
LE LUC/LE CANNET
FR 79
Do 19.05. 09:30241454 %1025
1025
1015
ONO 2 (5)
NNO - O
>= 10000  
LE LUC/LE CANNET
FR 79
Do 19.05. 09:00221669 %1024
1024
1014
Windstill>= 10000  
LE LUC/LE CANNET
FR 79
Do 19.05. 08:30191473 %1024
1024
1014
Uml 1 (1)   
LE LUC/LE CANNET
FR 79
Do 19.05. 08:00171482 %1024
1024
1014
Windstill>= 10000  
LE LUC/LE CANNET
FR 79
Do 19.05. 07:30161382 %1024
1024
1014
Windstill>= 10000  
LE LUC/LE CANNET
FR 79
Do 19.05. 07:00141288 %1024
1024
1014
Uml 1 (1)>= 10000  
LE LUC/LE CANNET
FR 79
Do 19.05. 06:30141288 %1023
1023
1013
Windstill>= 10000  
LE LUC/LE CANNET
FR 79
Do 19.05. 06:00141288 %1023
1023
1013
Windstill>= 10000  
LE LUC/LE CANNET
FR 79
Do 19.05. 05:30141288 %1023
1023
1013
Windstill>= 10000  
LE LUC/LE CANNET
FR 79
Do 19.05. 05:00141288 %1023
1023
1013
Windstill>= 10000  
LE LUC/LE CANNET
FR 79
Do 19.05. 04:30141288 %1023
1023
1013
SW 1 (1)>= 10000  
LE LUC/LE CANNET
FR 79
Do 19.05. 04:00151282 %1023
1023
1013
NO 1 (1)>= 10000  
LE LUC/LE CANNET
FR 79
Do 19.05. 03:30151388 %1022
1022
1012
Windstill>= 10000  
LE LUC/LE CANNET
FR 79
Do 19.05. 03:00151388 %1022
1022
1012
Windstill>= 10000  
LE LUC/LE CANNET
FR 79
Do 19.05. 02:30161382 %1022
1022
1012
Windstill>= 10000  
LE LUC/LE CANNET
FR 79
Do 19.05. 02:00161488 %1022
1022
1012
Windstill>= 10000  
LE LUC/LE CANNET
FR 79
Do 19.05. 01:30171377 %1022
1022
1012
Windstill>= 10000  
LE LUC/LE CANNET
FR 79
Do 19.05. 01:00171377 %1022
1022
1012
Windstill>= 10000  
LE LUC/LE CANNET
FR 79
Do 19.05. 00:30181373 %1022
1022
1012
WSW 1 (1)>= 10000  
LE LUC/LE CANNET
FR 79
Do 19.05. 00:00191368 %1022
1022
1012
Windstill>= 10000  
LE LUC/LE CANNET
FR 79
Mi 18.05. 23:30191368 %1022
1022
1012
Uml 1 (2)>= 10000  
LE LUC/LE CANNET
FR 79
Mi 18.05. 23:00201468 %1021
1021
1011
Uml 1 (1)>= 10000  
LE LUC/LE CANNET
FR 79
Mi 18.05. 22:30201468 %1021
1021
1011
NO 1 (2)>= 10000  
LE LUC/LE CANNET
FR 79
Mi 18.05. 22:00211360 %1021
1021
1011
NO 2 (3)>= 10000  
LE LUC/LE CANNET
FR 79
Mi 18.05. 21:30211256 %1021
1021
1011
Uml 2 (3)>= 10000  
LE LUC/LE CANNET
FR 79
Mi 18.05. 21:00221253 %1020
1020
1010
O 2 (5)>= 10000  
LE LUC/LE CANNET
FR 79
Mi 18.05. 20:30231250 %1020
1020
1010
O 2 (3)>= 10000  
LE LUC/LE CANNET
FR 79
Mi 18.05. 20:00241144 %1020
1020
1010
SO 2 (5)>= 10000  
LE LUC/LE CANNET
FR 79
Mi 18.05. 19:30251141 %1020
1020
1010
SO 3 (7)
O - SSO
>= 10000  
LE LUC/LE CANNET
FR 79
Mi 18.05. 19:00261139 %1019
1019
1010
SO 3 (8)>= 10000  
LE LUC/LE CANNET
FR 79
Mi 18.05. 18:30261345 %1019
1019
1010
OSO 3 (8)>= 10000  
LE LUC/LE CANNET
FR 79
Mi 18.05. 18:00261448 %1019
1019
1010
OSO 3 (8)>= 10000  
LE LUC/LE CANNET
FR 79
Mi 18.05. 17:30271445 %1019
1019
1010
OSO 3 (10)>= 10000  
LE LUC/LE CANNET
FR 79
Mi 18.05. 17:00281442 %1019
1019
1010
OSO 3 (9)>= 10000  
LE LUC/LE CANNET
FR 79
Mi 18.05. 16:30281442 %1019
1019
1010
SO 4 (11)
O - SSO
>= 10000  
LE LUC/LE CANNET
FR 79
Mi 18.05. 16:00281442 %1019
1019
1010
SO 4 (12)>= 10000  

Altimeter: Einstellung am Altimeter (Höhenmesser), die Höhe 0 muss auf diesen Luftdruckwert zeigen, damit das Gerät die Stationshöhe richtig anzeigt.

NN: Luftdruck reduziert auf "Normal Null", auf Meereshöhe, dieser von der Temperatur abhängige Wert wird bisweilen unkorrekt einfach als "Luftdruck" bezeichnet. Eigentlich nur eine fiktive Größe, die es erlaubt, Stationen auf unterschiedlichen Höhen miteinander zu vergleichen.

Station: Realer Luftdruck an der Station.